Time;durP1;ratioP1;P1;durP2;ratioP2;P2;SDS_P1;SDS_P2;PMS_P1;PMS_P2;Temp;Humidity;BMP_temperature;BMP_pressure;BME280_temperature;BME280_humidity;BME280_pressure;Samples;Min_cycle;Max_cycle;Signal;HPM_P1;HPM_P2
2022/08/09 00:02:05;;;;;;;6.85;4.45;;;10.30;99.90;;;;;;5053677;28;20040;-69
2022/08/09 00:04:32;;;;;;;5.57;4.65;;;10.30;99.90;;;;;;5056118;28;20377;-69
2022/08/09 00:06:58;;;;;;;5.63;4.57;;;10.30;99.90;;;;;;5049694;28;20017;-69
2022/08/09 00:09:24;;;;;;;9.25;4.47;;;10.20;99.90;;;;;;5036170;28;20021;-68
2022/08/09 00:11:49;;;;;;;6.05;4.47;;;10.20;99.90;;;;;;5035962;28;20481;-68
2022/08/09 00:14:16;;;;;;;7.95;5.05;;;10.20;99.90;;;;;;5035938;28;20029;-69
2022/08/09 00:16:42;;;;;;;5.35;3.88;;;10.10;99.90;;;;;;5054174;28;20036;-68
2022/08/09 00:19:08;;;;;;;11.55;4.15;;;10.00;99.90;;;;;;5052603;28;20033;-68
2022/08/09 00:21:34;;;;;;;8.90;4.55;;;10.00;99.90;;;;;;5055670;28;20034;-68
2022/08/09 00:24:00;;;;;;;5.68;4.68;;;9.90;99.90;;;;;;5044487;28;20366;-69
2022/08/09 00:26:26;;;;;;;4.30;3.90;;;9.80;99.90;;;;;;5036050;28;20021;-69
2022/08/09 00:28:52;;;;;;;5.90;4.65;;;9.80;99.90;;;;;;5035761;28;20476;-69
2022/08/09 00:31:20;;;;;;;4.45;4.03;;;9.80;99.90;;;;;;5035917;28;20120;-69
2022/08/09 00:33:46;;;;;;;6.55;4.95;;;9.80;99.90;;;;;;5035987;28;20049;-69
2022/08/09 00:36:12;;;;;;;9.30;4.75;;;9.80;99.90;;;;;;5053103;28;20493;-68
2022/08/09 00:38:38;;;;;;;6.05;4.70;;;9.80;99.90;;;;;;5055355;28;20037;-69
2022/08/09 00:41:04;;;;;;;6.18;4.45;;;9.80;99.90;;;;;;5055312;28;20024;-69
2022/08/09 00:43:33;;;;;;;7.65;5.22;;;9.80;99.90;;;;;;5045781;28;20029;-69
2022/08/09 00:45:58;;;;;;;5.45;4.78;;;9.80;99.90;;;;;;5035462;28;20024;-68
2022/08/09 00:48:24;;;;;;;6.45;4.85;;;9.80;99.90;;;;;;5035312;28;20025;-69
2022/08/09 00:50:49;;;;;;;7.55;5.00;;;9.70;99.90;;;;;;5034462;28;20021;-69
2022/08/09 00:53:16;;;;;;;6.50;4.95;;;9.70;99.90;;;;;;5035509;28;20025;-68
2022/08/09 00:55:42;;;;;;;6.35;4.60;;;9.70;99.90;;;;;;5049686;28;20033;-69
2022/08/09 00:58:08;;;;;;;8.13;4.53;;;9.70;99.90;;;;;;5055121;28;20037;-68
2022/08/09 01:00:34;;;;;;;5.00;4.50;;;9.60;99.90;;;;;;5055032;28;20029;-68
2022/08/09 01:03:18;;;;;;;6.80;5.50;;;9.60;99.90;;;;;;5055006;28;20028;-68
2022/08/09 01:05:44;;;;;;;;;;;9.60;99.90;;;;;;5055344;28;20119;-69
2022/08/09 01:08:28;;;;;;;7.93;4.40;;;9.50;99.90;;;;;;5039083;28;19949;-68
2022/08/09 01:11:16;;;;;;;4.90;3.72;;;9.50;99.90;;;;;;5051057;28;20421;-68
2022/08/09 01:13:50;;;;;;;5.28;4.35;;;9.40;99.90;;;;;;5055079;28;20017;-68
2022/08/09 01:16:18;;;;;;;7.75;4.32;;;9.30;99.90;;;;;;5055445;28;20104;-68
2022/08/09 01:18:45;;;;;;;5.32;4.53;;;9.30;99.90;;;;;;5054693;28;20029;-68
2022/08/09 01:21:46;;;;;;;6.35;4.55;;;9.30;99.90;;;;;;5043254;28;20064;-68
2022/08/09 01:24:34;;;;;;;5.13;4.63;;;9.20;99.90;;;;;;5016922;28;20121;-69
2022/08/09 01:27:11;;;;;;;5.40;4.53;;;9.20;99.90;;;;;;5034810;28;20045;-68
2022/08/09 01:29:41;;;;;;;12.00;4.75;;;9.10;99.90;;;;;;5034855;28;20025;-68
2022/08/09 01:32:09;;;;;;;6.65;5.53;;;9.10;99.90;;;;;;5043161;28;20033;-67
2022/08/09 01:34:37;;;;;;;6.03;5.03;;;9.10;99.90;;;;;;5040320;28;20036;-68
2022/08/09 01:37:06;;;;;;;5.22;4.45;;;9.00;99.90;;;;;;5034539;28;20080;-68
2022/08/09 01:39:35;;;;;;;4.70;4.22;;;9.10;99.90;;;;;;5036937;28;20112;-69
2022/08/09 01:42:03;;;;;;;7.60;5.20;;;9.00;99.90;;;;;;5054169;28;20104;-68
2022/08/09 01:44:29;;;;;;;9.35;5.32;;;9.00;99.90;;;;;;5045386;28;20477;-69
2022/08/09 01:46:58;;;;;;;9.63;5.38;;;9.00;99.90;;;;;;5034240;28;20033;-68
2022/08/09 01:49:24;;;;;;;7.25;4.78;;;9.00;99.90;;;;;;5033181;28;20033;-68
2022/08/09 01:51:55;;;;;;;7.20;5.07;;;9.00;99.90;;;;;;5034388;28;20032;-68
2022/08/09 01:54:24;;;;;;;5.63;4.53;;;9.00;99.90;;;;;;5043718;28;20017;-68
2022/08/09 01:56:53;;;;;;;5.88;5.28;;;9.00;99.90;;;;;;5053940;28;20095;-68
2022/08/09 01:59:21;;;;;;;7.47;4.90;;;8.90;99.90;;;;;;5053945;28;20029;-68
2022/08/09 02:01:50;;;;;;;9.82;5.00;;;8.90;99.90;;;;;;5054101;28;20384;-68
2022/08/09 02:04:16;;;;;;;7.93;5.15;;;8.90;99.90;;;;;;5044927;28;20053;-68
2022/08/09 02:09:30;;;;;;;6.03;5.35;;;8.90;99.90;;;;;;5040987;28;20507;-68
2022/08/09 02:11:58;;;;;;;7.85;5.72;;;8.90;99.90;;;;;;5033635;28;20031;-68
2022/08/09 02:14:26;;;;;;;6.93;5.43;;;8.90;99.90;;;;;;5033854;28;20025;-68
2022/08/09 02:16:53;;;;;;;7.07;5.57;;;8.90;99.90;;;;;;5034307;28;20025;-68
2022/08/09 02:19:19;;;;;;;7.28;5.78;;;8.90;99.90;;;;;;5034041;28;20021;-68
2022/08/09 02:21:48;;;;;;;6.68;5.80;;;8.90;99.90;;;;;;5046308;28;20028;-68
2022/08/09 02:24:21;;;;;;;10.35;5.80;;;8.80;99.90;;;;;;5052953;28;20049;-68
2022/08/09 02:26:50;;;;;;;7.53;5.55;;;8.80;99.90;;;;;;5039314;28;20427;-68
2022/08/09 02:29:20;;;;;;;8.82;5.90;;;8.80;99.90;;;;;;5033818;28;20119;-68
2022/08/09 02:31:47;;;;;;;8.73;6.00;;;8.90;99.90;;;;;;5033633;28;20033;-68
2022/08/09 02:34:17;;;;;;;14.50;6.82;;;8.80;99.90;;;;;;5033512;28;20021;-68
2022/08/09 02:36:49;;;;;;;7.22;5.90;;;8.80;99.90;;;;;;5033208;28;20017;-72
2022/08/09 02:39:19;;;;;;;7.18;5.95;;;8.80;99.90;;;;;;5052859;28;20014;-67
2022/08/09 02:41:49;;;;;;;7.65;6.25;;;8.80;99.90;;;;;;5052444;28;20036;-68
2022/08/09 02:44:19;;;;;;;7.88;6.38;;;8.80;99.90;;;;;;5053653;28;20025;-68
2022/08/09 02:46:48;;;;;;;9.48;6.00;;;8.80;99.90;;;;;;5053337;28;20029;-68
2022/08/09 02:49:15;;;;;;;6.57;5.68;;;8.70;99.90;;;;;;5038237;28;20025;-68
2022/08/09 02:51:43;;;;;;;10.93;6.20;;;8.70;99.90;;;;;;5033259;28;20100;-68
2022/08/09 02:54:14;;;;;;;9.52;6.40;;;8.60;99.90;;;;;;5040247;28;20500;-68
2022/08/09 02:56:42;;;;;;;8.40;6.00;;;8.60;99.90;;;;;;5053161;28;20051;-68
2022/08/09 02:59:10;;;;;;;7.88;6.00;;;8.60;99.90;;;;;;5053161;28;20036;-68
2022/08/09 03:01:37;;;;;;;6.25;5.63;;;8.50;99.90;;;;;;5053228;28;20044;-68
2022/08/09 03:04:04;;;;;;;6.95;5.88;;;8.50;99.90;;;;;;5046363;28;20109;-68
2022/08/09 03:06:32;;;;;;;7.43;6.35;;;8.40;99.90;;;;;;5051842;28;20031;-69
2022/08/09 03:08:59;;;;;;;7.65;5.93;;;8.40;99.90;;;;;;5033433;28;20061;-68
2022/08/09 03:11:25;;;;;;;9.82;5.88;;;8.40;99.90;;;;;;5033134;28;20026;-68
2022/08/09 03:13:51;;;;;;;8.75;6.32;;;8.30;99.90;;;;;;5033109;28;20034;-68
2022/08/09 03:16:18;;;;;;;12.00;6.50;;;8.30;99.90;;;;;;5033366;28;20026;-68
2022/08/09 03:18:45;;;;;;;8.82;6.43;;;8.30;99.90;;;;;;5041794;28;20029;-68
2022/08/09 03:21:11;;;;;;;9.93;6.07;;;8.30;99.90;;;;;;5051785;28;20029;-68
2022/08/09 03:23:36;;;;;;;6.70;5.88;;;8.20;99.90;;;;;;5052776;28;20423;-68
2022/08/09 03:26:03;;;;;;;6.60;5.72;;;8.20;99.90;;;;;;5053214;28;20100;-68
2022/08/09 03:28:29;;;;;;;7.43;5.90;;;8.20;99.90;;;;;;5052781;28;20099;-68
2022/08/09 03:30:56;;;;;;;7.93;5.97;;;8.20;99.90;;;;;;5052635;28;20167;-68
2022/08/09 03:33:23;;;;;;;7.55;5.88;;;8.20;99.90;;;;;;5019097;28;20033;-68
2022/08/09 03:35:50;;;;;;;7.72;6.45;;;8.20;99.90;;;;;;5018324;28;20030;-68
2022/08/09 03:38:16;;;;;;;7.72;6.28;;;8.20;99.90;;;;;;5036672;28;20033;-68
2022/08/09 03:40:42;;;;;;;6.90;5.70;;;8.20;99.90;;;;;;5036632;28;20030;-67
2022/08/09 03:43:08;;;;;;;7.10;5.90;;;8.10;99.90;;;;;;5052592;28;20082;-68
2022/08/09 03:45:35;;;;;;;7.45;6.65;;;8.10;99.90;;;;;;5056222;28;20025;-70
2022/08/09 03:48:01;;;;;;;6.75;5.90;;;8.20;99.90;;;;;;5036303;28;20021;-68
2022/08/09 03:50:28;;;;;;;8.13;5.90;;;8.20;99.90;;;;;;5036921;28;20029;-67
2022/08/09 03:52:56;;;;;;;7.93;6.13;;;8.20;99.90;;;;;;5036770;28;20469;-68
2022/08/09 03:55:22;;;;;;;6.25;5.22;;;8.20;99.90;;;;;;5035494;28;20067;-68
2022/08/09 03:57:49;;;;;;;18.17;6.25;;;8.20;99.90;;;;;;5053117;28;20060;-68
2022/08/09 04:00:15;;;;;;;7.07;6.05;;;8.20;99.90;;;;;;5024838;28;20401;-68
2022/08/09 04:02:42;;;;;;;7.13;5.68;;;8.20;99.90;;;;;;5045528;28;20029;-68
2022/08/09 04:05:12;;;;;;;9.20;5.38;;;8.20;99.90;;;;;;5054076;28;20045;-69
2022/08/09 04:07:38;;;;;;;8.65;5.75;;;8.30;99.90;;;;;;5051652;28;20047;-68
2022/08/09 04:10:04;;;;;;;13.52;6.30;;;8.30;99.90;;;;;;5056023;28;20073;-69
2022/08/09 04:12:43;;;;;;;7.15;5.43;;;8.40;99.90;;;;;;5056287;28;20029;-69
2022/08/09 04:15:09;;;;;;;12.10;6.72;;;8.40;99.90;;;;;;5039137;28;20042;-69
2022/08/09 04:17:35;;;;;;;9.85;6.47;;;8.40;99.90;;;;;;5047911;28;20025;-69
2022/08/09 04:20:00;;;;;;;7.40;6.32;;;8.40;99.90;;;;;;5055864;28;20517;-69
2022/08/09 04:22:26;;;;;;;8.13;6.22;;;8.40;99.90;;;;;;5051629;28;20025;-69
2022/08/09 04:24:51;;;;;;;8.60;6.40;;;8.40;99.90;;;;;;5036471;28;20405;-69
2022/08/09 04:27:17;;;;;;;11.68;6.32;;;8.50;99.90;;;;;;5036764;28;20026;-69
2022/08/09 04:29:43;;;;;;;10.55;7.18;;;8.50;99.90;;;;;;5051489;28;20040;-69
2022/08/09 04:32:08;;;;;;;8.95;7.03;;;8.60;99.90;;;;;;5055517;28;20033;-69
2022/08/09 04:34:34;;;;;;;12.93;7.78;;;8.70;99.90;;;;;;5047476;28;20025;-68
2022/08/09 04:37:00;;;;;;;11.20;8.02;;;8.70;99.90;;;;;;5035764;28;20541;-68
2022/08/09 04:39:26;;;;;;;11.07;7.78;;;8.80;99.90;;;;;;5035979;28;20036;-68
2022/08/09 04:41:51;;;;;;;9.77;7.47;;;8.90;99.90;;;;;;5034565;28;20380;-68
2022/08/09 04:44:17;;;;;;;12.50;7.82;;;8.90;99.90;;;;;;5036066;28;20105;-68
2022/08/09 04:46:43;;;;;;;8.98;7.43;;;9.00;99.90;;;;;;5054655;28;20041;-68
2022/08/09 04:49:08;;;;;;;9.23;7.22;;;9.10;99.90;;;;;;5055557;28;20043;-68
2022/08/09 04:51:34;;;;;;;12.43;7.63;;;9.20;99.90;;;;;;5055392;28;20487;-68
2022/08/09 04:54:00;;;;;;;11.27;7.72;;;9.30;99.90;;;;;;5048353;28;20025;-68
2022/08/09 04:56:25;;;;;;;17.15;7.90;;;9.30;99.90;;;;;;5038683;28;20068;-68
2022/08/09 04:58:51;;;;;;;10.07;8.07;;;9.40;99.90;;;;;;5039124;28;20022;-68
2022/08/09 05:01:17;;;;;;;11.30;8.77;;;9.50;99.90;;;;;;5035178;28;20025;-68
2022/08/09 05:03:42;;;;;;;9.18;7.15;;;9.60;99.90;;;;;;5035095;28;20469;-68
2022/08/09 05:06:11;;;;;;;11.77;8.80;;;9.80;99.90;;;;;;5053006;28;20445;-68
2022/08/09 05:08:37;;;;;;;10.88;7.70;;;9.90;99.90;;;;;;5055019;28;20055;-69
2022/08/09 05:11:04;;;;;;;10.85;8.05;;;10.00;99.90;;;;;;5034628;28;20049;-68
2022/08/09 05:13:29;;;;;;;14.00;8.95;;;10.10;99.90;;;;;;5054917;28;20021;-68
2022/08/09 05:15:55;;;;;;;11.00;7.97;;;10.30;99.90;;;;;;5055464;28;20373;-68
2022/08/09 05:18:20;;;;;;;12.88;9.07;;;10.40;99.90;;;;;;5054711;28;20021;-68
2022/08/09 05:20:46;;;;;;;12.82;8.60;;;10.50;99.90;;;;;;5054720;28;20028;-68
2022/08/09 05:23:12;;;;;;;11.13;8.65;;;10.70;99.90;;;;;;5054819;28;20043;-68
2022/08/09 05:25:38;;;;;;;11.63;9.63;;;10.80;99.90;;;;;;5052872;28;20025;-68
2022/08/09 05:28:04;;;;;;;13.40;8.68;;;11.00;99.90;;;;;;5054766;28;20017;-68
2022/08/09 05:30:29;;;;;;;10.68;8.40;;;11.10;99.90;;;;;;5054370;28;20131;-68
2022/08/09 05:32:55;;;;;;;11.88;8.38;;;11.30;99.90;;;;;;5054846;28;20021;-68
2022/08/09 05:35:21;;;;;;;11.95;9.88;;;11.40;99.90;;;;;;5054412;28;20029;-68
2022/08/09 05:37:47;;;;;;;12.98;8.82;;;11.60;99.90;;;;;;5052044;28;20032;-68
2022/08/09 05:40:14;;;;;;;12.13;9.20;;;11.80;99.90;;;;;;5054323;28;20511;-68
2022/08/09 05:42:40;;;;;;;10.52;8.70;;;12.00;99.90;;;;;;5054418;28;20108;-69
2022/08/09 05:45:06;;;;;;;11.63;8.75;;;12.10;99.90;;;;;;5054386;28;20017;-68
2022/08/09 05:47:32;;;;;;;13.30;8.57;;;12.20;99.90;;;;;;5054166;28;20420;-68
2022/08/09 05:49:58;;;;;;;15.68;8.93;;;12.30;99.90;;;;;;5054133;28;20021;-68
2022/08/09 05:52:23;;;;;;;11.27;8.48;;;12.60;99.90;;;;;;5047244;28;20040;-69
2022/08/09 05:54:49;;;;;;;12.93;10.27;;;12.70;99.90;;;;;;5034238;28;20109;-68
2022/08/09 05:57:15;;;;;;;10.23;7.70;;;12.90;99.90;;;;;;5033730;28;20049;-68
2022/08/09 05:59:41;;;;;;;9.98;7.22;;;13.10;99.90;;;;;;5033765;28;20056;-68
2022/08/09 06:02:07;;;;;;;9.20;7.30;;;13.10;99.90;;;;;;5033958;28;20033;-68
2022/08/09 06:04:33;;;;;;;11.05;7.68;;;13.20;99.90;;;;;;5033911;28;20018;-68
2022/08/09 06:06:59;;;;;;;9.55;7.60;;;13.20;99.90;;;;;;5032229;28;20074;-68
2022/08/09 06:09:24;;;;;;;12.48;7.00;;;13.30;99.90;;;;;;5034272;28;20021;-68
2022/08/09 06:11:50;;;;;;;11.50;7.97;;;13.50;99.90;;;;;;5033843;28;20025;-68
2022/08/09 06:14:16;;;;;;;14.52;6.80;;;13.60;99.90;;;;;;5034308;28;20104;-68
2022/08/09 06:16:42;;;;;;;7.80;6.60;;;13.60;99.90;;;;;;5033695;28;20024;-68
2022/08/09 06:19:08;;;;;;;17.90;7.95;;;13.80;99.90;;;;;;5034059;28;20021;-68
2022/08/09 06:21:33;;;;;;;7.72;6.82;;;13.90;99.90;;;;;;5032960;28;20033;-68
2022/08/09 06:23:59;;;;;;;7.43;6.63;;;14.10;99.90;;;;;;5034027;28;20025;-68
2022/08/09 06:26:25;;;;;;;8.88;7.15;;;14.20;99.90;;;;;;5033930;28;20083;-68
2022/08/09 06:28:55;;;;;;;11.75;6.80;;;14.30;99.90;;;;;;5033784;28;20033;-68
2022/08/09 06:31:21;;;;;;;15.38;7.07;;;14.50;99.90;;;;;;5033537;28;20043;-68
2022/08/09 06:33:46;;;;;;;8.85;6.72;;;14.70;99.90;;;;;;5033571;28;20029;-68
2022/08/09 06:36:12;;;;;;;9.65;6.35;;;14.80;99.90;;;;;;5048946;28;20037;-67
2022/08/09 06:38:37;;;;;;;7.10;6.00;;;15.10;99.90;;;;;;5053394;28;20064;-67
2022/08/09 06:41:04;;;;;;;9.43;5.47;;;15.30;99.90;;;;;;5053295;28;20032;-68
2022/08/09 06:43:30;;;;;;;7.20;4.72;;;15.50;99.90;;;;;;5046515;28;20058;-68
2022/08/09 06:45:56;;;;;;;4.85;4.30;;;15.60;99.90;;;;;;5053855;28;20112;-67
2022/08/09 06:48:21;;;;;;;5.03;4.30;;;15.60;99.90;;;;;;5051621;28;20032;-68
2022/08/09 06:50:47;;;;;;;4.90;4.07;;;15.80;99.90;;;;;;5053235;28;20017;-68
2022/08/09 06:53:12;;;;;;;5.43;3.67;;;16.00;99.90;;;;;;5053902;28;20488;-68
2022/08/09 06:55:38;;;;;;;6.95;3.50;;;16.20;99.90;;;;;;5053190;28;20025;-68
2022/08/09 06:58:04;;;;;;;9.57;3.92;;;16.40;99.90;;;;;;5048492;28;20676;-68
2022/08/09 07:00:31;;;;;;;5.13;3.97;;;16.40;99.90;;;;;;5046932;28;20051;-68
2022/08/09 07:02:56;;;;;;;6.63;3.28;;;16.60;99.90;;;;;;5030446;28;20025;-69
2022/08/09 07:05:23;;;;;;;8.95;3.72;;;16.90;99.90;;;;;;5040630;28;20028;-66
2022/08/09 07:07:48;;;;;;;4.18;3.40;;;17.10;99.90;;;;;;5037289;28;20017;-68
2022/08/09 07:10:15;;;;;;;3.47;3.00;;;17.20;99.90;;;;;;5044515;28;20100;-68
2022/08/09 07:12:40;;;;;;;4.80;2.88;;;17.30;99.90;;;;;;5037760;28;20041;-67
2022/08/09 07:15:06;;;;;;;6.43;3.78;;;17.50;99.90;;;;;;5037133;28;20036;-68
2022/08/09 07:17:32;;;;;;;3.00;2.08;;;17.70;99.90;;;;;;5037330;28;20029;-68
2022/08/09 07:19:57;;;;;;;4.60;2.10;;;17.60;99.90;;;;;;5037284;28;20481;-67
2022/08/09 07:22:23;;;;;;;2.25;2.00;;;17.70;99.90;;;;;;5036186;28;20021;-68
2022/08/09 07:24:48;;;;;;;4.93;1.95;;;17.80;99.90;;;;;;5036895;28;20029;-67
2022/08/09 07:27:14;;;;;;;9.65;2.30;;;17.90;99.90;;;;;;5036884;28;20076;-66
2022/08/09 07:29:40;;;;;;;2.65;1.77;;;18.10;99.90;;;;;;5037258;28;20100;-69
2022/08/09 07:32:06;;;;;;;1.90;1.70;;;18.20;99.90;;;;;;5066683;22;20053;-68
2022/08/09 07:34:33;;;;;;;2.80;1.80;;;18.40;99.90;;;;;;5036948;28;20444;-68
2022/08/09 07:36:59;;;;;;;1.73;1.40;;;18.60;99.90;;;;;;5035586;28;20443;-68
2022/08/09 07:39:25;;;;;;;1.75;1.23;;;18.80;99.90;;;;;;5036661;28;20026;-67
2022/08/09 07:41:51;;;;;;;3.63;1.80;;;18.90;99.90;;;;;;5036458;28;20120;-67
2022/08/09 07:44:16;;;;;;;1.58;1.33;;;19.00;99.90;;;;;;5036760;28;20021;-67
2022/08/09 07:46:42;;;;;;;2.08;1.50;;;19.10;99.90;;;;;;5032595;28;20108;-67
2022/08/09 07:49:08;;;;;;;3.75;1.70;;;19.30;99.90;;;;;;5036227;28;20060;-67
2022/08/09 07:51:34;;;;;;;1.40;1.30;;;19.40;99.90;;;;;;5036170;28;20032;-67
2022/08/09 07:53:59;;;;;;;4.43;1.45;;;19.50;99.90;;;;;;5035794;28;20030;-67
2022/08/09 07:56:26;;;;;;;1.50;1.40;;;19.50;99.90;;;;;;5036598;28;20056;-67
2022/08/09 07:58:52;;;;;;;6.20;1.35;;;19.50;99.90;;;;;;5036541;28;20185;-66
2022/08/09 08:01:18;;;;;;;1.50;1.30;;;19.50;99.90;;;;;;5034297;28;20112;-66
2022/08/09 08:03:44;;;;;;;1.38;1.13;;;19.60;99.90;;;;;;5036103;28;20565;-66
2022/08/09 08:06:10;;;;;;;1.30;1.20;;;19.60;99.90;;;;;;5034980;28;20588;-66
2022/08/09 08:08:35;;;;;;;1.55;1.00;;;19.80;99.90;;;;;;5036101;28;20025;-66
2022/08/09 08:11:01;;;;;;;1.30;1.08;;;20.10;99.90;;;;;;5035824;28;20488;-66
2022/08/09 08:13:27;;;;;;;3.55;1.40;;;20.30;99.90;;;;;;5034637;28;20036;-66
2022/08/09 08:15:52;;;;;;;1.50;0.80;;;20.40;99.90;;;;;;5035058;28;20030;-67
2022/08/09 08:18:18;;;;;;;2.83;1.08;;;20.60;99.90;;;;;;5018114;28;20029;-66
2022/08/09 08:20:43;;;;;;;6.20;1.40;;;20.80;99.90;;;;;;5032815;28;20481;-67
2022/08/09 08:23:10;;;;;;;0.82;0.80;;;20.90;99.90;;;;;;5034652;28;20520;-67
2022/08/09 08:25:36;;;;;;;0.77;0.77;;;21.10;99.90;;;;;;5036055;28;20073;-67
2022/08/09 08:28:02;;;;;;;4.60;1.00;;;21.20;99.90;;;;;;5034700;28;20410;-67
2022/08/09 08:30:27;;;;;;;1.65;1.25;;;21.10;99.90;;;;;;5035884;28;20025;-67
2022/08/09 08:32:53;;;;;;;1.30;0.93;;;21.00;99.90;;;;;;5035471;28;20037;-67
2022/08/09 08:35:19;;;;;;;1.13;0.80;;;21.10;99.90;;;;;;5035875;28;20033;-67
2022/08/09 08:37:45;;;;;;;1.00;0.65;;;21.30;99.90;;;;;;5035574;28;20033;-67
2022/08/09 08:40:11;;;;;;;1.55;0.70;;;21.20;99.90;;;;;;5035369;28;20024;-67
2022/08/09 08:42:37;;;;;;;5.47;0.73;;;21.00;99.90;;;;;;5034264;28;20065;-67
2022/08/09 08:45:04;;;;;;;1.42;0.80;;;20.90;99.90;;;;;;5035376;28;20057;-67
2022/08/09 08:47:30;;;;;;;0.65;0.65;;;20.90;99.90;;;;;;5035516;28;20091;-68
2022/08/09 08:49:58;;;;;;;2.03;0.90;;;21.20;99.90;;;;;;5035562;28;20025;-68
2022/08/09 08:52:26;;;;;;;1.60;0.98;;;21.30;99.90;;;;;;5035390;28;20025;-67
2022/08/09 08:54:53;;;;;;;0.77;0.50;;;21.40;99.90;;;;;;5035359;28;20057;-67
2022/08/09 08:57:20;;;;;;;0.60;0.60;;;21.40;99.90;;;;;;5034271;28;20026;-67
2022/08/09 08:59:45;;;;;;;2.15;1.08;;;21.60;99.90;;;;;;5035385;28;20040;-67
2022/08/09 09:02:22;;;;;;;2.50;0.90;;;21.70;99.90;;;;;;5034844;28;20389;-67
2022/08/09 09:04:51;;;;;;;1.30;0.70;;;21.80;99.90;;;;;;5035369;28;20032;-67
2022/08/09 09:07:17;;;;;;;1.27;0.63;;;21.70;99.90;;;;;;5034854;28;20030;-67
2022/08/09 09:09:46;;;;;;;0.90;0.68;;;21.70;99.90;;;;;;5034896;28;20018;-67
2022/08/09 09:12:14;;;;;;;1.00;0.63;;;21.80;99.90;;;;;;5035098;28;20113;-67
2022/08/09 09:14:42;;;;;;;0.95;0.60;;;21.90;99.90;;;;;;5033527;28;20481;-67
2022/08/09 09:17:07;;;;;;;2.75;0.95;;;21.90;99.90;;;;;;5034621;28;20026;-66
2022/08/09 09:19:33;;;;;;;1.17;0.70;;;22.00;99.90;;;;;;5035155;28;20151;-66
2022/08/09 09:22:10;;;;;;;0.68;0.68;;;22.10;99.90;;;;;;5034771;28;20049;-66
2022/08/09 09:24:56;;;;;;;2.00;0.70;;;22.00;99.90;;;;;;5034614;28;20045;-67
2022/08/09 09:27:25;;;;;;;3.63;0.70;;;22.10;99.90;;;;;;5034272;28;20045;-67
2022/08/09 09:29:52;;;;;;;4.40;0.60;;;22.40;99.90;;;;;;5033570;28;20033;-67
2022/08/09 09:32:30;;;;;;;2.60;0.80;;;22.60;99.90;;;;;;5034118;28;20400;-67
2022/08/09 09:35:07;;;;;;;0.88;0.75;;;22.80;99.90;;;;;;5034637;28;20021;-67
2022/08/09 09:37:33;;;;;;;1.02;0.70;;;23.10;99.90;;;;;;5034674;28;20374;-67
2022/08/09 09:39:58;;;;;;;8.48;1.27;;;23.30;99.90;;;;;;5034337;28;20028;-67
2022/08/09 09:42:28;;;;;;;0.93;0.70;;;23.40;99.90;;;;;;5016434;28;20026;-67
2022/08/09 09:45:06;;;;;;;2.25;0.70;;;23.50;99.90;;;;;;5034499;28;20033;-67
2022/08/09 09:47:32;;;;;;;1.25;0.60;;;23.40;99.90;;;;;;5030355;28;20040;-67
2022/08/09 09:49:59;;;;;;;0.70;0.55;;;23.40;99.90;;;;;;5034492;28;20057;-67
2022/08/09 09:52:26;;;;;;;1.33;0.65;;;23.60;99.90;;;;;;5034121;28;20028;-67
2022/08/09 09:55:04;;;;;;;1.20;0.70;;;23.70;99.90;;;;;;5034231;28;20033;-67
2022/08/09 09:57:30;;;;;;;1.42;0.57;;;23.90;99.90;;;;;;5034024;28;20036;-67
2022/08/09 09:59:55;;;;;;;8.73;0.80;;;23.90;99.90;;;;;;5034040;28;20017;-67
2022/08/09 10:02:24;;;;;;;4.32;0.60;;;24.00;99.90;;;;;;5032481;28;20025;-67
2022/08/09 10:05:08;;;;;;;0.40;0.40;;;24.30;99.90;;;;;;5034212;28;20113;-67
2022/08/09 10:07:34;;;;;;;1.65;0.70;;;24.30;99.90;;;;;;5034095;28;20021;-67
2022/08/09 10:10:00;;;;;;;1.92;0.75;;;24.20;99.90;;;;;;5033854;28;20021;-67
2022/08/09 10:12:35;;;;;;;1.00;0.60;;;24.40;99.90;;;;;;5033535;28;20489;-67
2022/08/09 10:15:06;;;;;;;1.55;0.45;;;24.40;99.90;;;;;;5034052;28;20079;-67
2022/08/09 10:17:34;;;;;;;0.98;0.50;;;24.50;99.90;;;;;;5033971;28;20428;-67
2022/08/09 10:20:04;;;;;;;0.65;0.60;;;24.40;99.90;;;;;;5032843;28;20463;-67
2022/08/09 10:22:35;;;;;;;1.98;0.60;;;23.90;99.90;;;;;;5033820;28;20381;-67
2022/08/09 10:25:04;;;;;;;1.17;0.43;;;23.50;99.90;;;;;;5033994;28;20025;-67
2022/08/09 10:27:31;;;;;;;3.35;0.80;;;23.40;99.90;;;;;;5033380;28;20025;-67
2022/08/09 10:29:59;;;;;;;4.47;0.65;;;23.30;99.90;;;;;;5033397;28;20022;-67
2022/08/09 10:32:24;;;;;;;0.95;0.75;;;23.20;99.90;;;;;;5033297;28;20041;-67
2022/08/09 10:34:50;;;;;;;0.50;0.50;;;22.90;99.90;;;;;;5034220;28;20025;-67
2022/08/09 10:37:17;;;;;;;1.80;0.80;;;22.60;99.90;;;;;;5031590;28;20139;-67
2022/08/09 10:39:43;;;;;;;3.05;0.90;;;23.10;99.90;;;;;;5033241;28;20033;-67
2022/08/09 10:42:09;;;;;;;1.65;0.55;;;23.60;99.90;;;;;;5033338;28;20067;-67
2022/08/09 10:44:36;;;;;;;7.25;1.30;;;24.10;99.90;;;;;;5032512;28;20025;-67
2022/08/09 10:47:16;;;;;;;1.40;0.65;;;24.70;99.90;;;;;;5018616;28;20018;-68
2022/08/09 10:50:13;;;;;;;3.60;1.05;;;24.90;99.90;;;;;;5019030;28;20047;-67
2022/08/09 10:53:06;;;;;;;3.63;1.20;;;25.00;99.90;;;;;;5016414;28;20037;-67
2022/08/09 10:55:34;;;;;;;3.00;0.75;;;24.80;99.90;;;;;;5027530;28;20163;-67
2022/08/09 10:58:00;;;;;;;1.13;0.70;;;24.20;99.90;;;;;;5032927;28;20508;-67
2022/08/09 11:00:32;;;;;;;1.15;0.55;;;23.50;99.90;;;;;;5032988;28;20038;-67
2022/08/09 11:02:58;;;;;;;2.53;0.40;;;23.50;99.90;;;;;;5032788;28;20026;-67
2022/08/09 11:05:24;;;;;;;1.80;0.32;;;23.60;99.90;;;;;;5032989;28;20032;-67
2022/08/09 11:07:50;;;;;;;1.15;0.40;;;24.00;99.90;;;;;;5032906;28;20018;-67
2022/08/09 11:10:35;;;;;;;0.80;0.63;;;24.10;99.90;;;;;;5030778;28;20033;-67
2022/08/09 11:13:18;;;;;;;2.38;0.50;;;24.30;99.90;;;;;;5032812;28;20489;-67
2022/08/09 11:15:44;;;;;;;0.83;0.60;;;24.70;99.90;;;;;;5032948;28;20592;-67
2022/08/09 11:18:14;;;;;;;0.68;0.50;;;25.10;99.90;;;;;;5031889;28;20118;-67
2022/08/09 11:20:43;;;;;;;0.98;0.40;;;25.30;99.90;;;;;;5033097;28;20095;-67
2022/08/09 11:23:10;;;;;;;1.02;0.43;;;25.20;99.90;;;;;;5032900;28;20025;-67
2022/08/09 11:25:38;;;;;;;0.75;0.50;;;24.90;99.90;;;;;;5031883;28;20068;-67
2022/08/09 11:28:38;;;;;;;1.73;0.60;;;24.90;99.90;;;;;;5033074;28;20049;-67
2022/08/09 11:31:38;;;;;;;1.38;0.70;;;25.10;99.90;;;;;;4989820;28;20037;-67
2022/08/09 11:34:11;;;;;;;0.60;0.50;;;25.80;99.90;;;;;;5032768;28;20048;-67
2022/08/09 11:36:41;;;;;;;0.60;0.52;;;26.50;99.90;;;;;;5032985;28;20034;-67
2022/08/09 11:39:07;;;;;;;0.57;0.40;;;27.00;99.90;;;;;;5033203;28;20486;-67
2022/08/09 11:41:33;;;;;;;2.95;0.43;;;27.50;99.90;;;;;;5031495;28;20116;-67
2022/08/09 11:43:59;;;;;;;3.33;0.50;;;27.50;99.90;;;;;;5031913;28;20033;-67
2022/08/09 11:46:26;;;;;;;0.75;0.50;;;27.20;99.90;;;;;;5032818;28;20033;-67
2022/08/09 11:48:54;;;;;;;3.38;0.50;;;26.50;99.90;;;;;;5033000;28;20022;-67
2022/08/09 11:51:22;;;;;;;0.90;0.40;;;26.10;99.90;;;;;;5032924;28;20504;-67
2022/08/09 11:54:08;;;;;;;1.10;0.57;;;25.90;99.90;;;;;;5033269;28;20033;-68
2022/08/09 11:56:34;;;;;;;0.73;0.40;;;26.40;99.90;;;;;;5034238;28;20029;-68
2022/08/09 11:59:00;;;;;;;1.25;0.55;;;26.60;99.90;;;;;;5036317;28;20040;-68
2022/08/09 12:01:36;;;;;;;1.55;0.40;;;27.00;99.90;;;;;;5036127;28;20025;-68
2022/08/09 12:04:08;;;;;;;3.42;0.60;;;27.50;99.90;;;;;;5036187;28;20067;-69
2022/08/09 12:06:35;;;;;;;1.05;0.38;;;27.50;99.90;;;;;;5036182;28;20382;-68
2022/08/09 12:09:04;;;;;;;1.70;0.40;;;27.80;99.90;;;;;;5018343;28;20025;-68
2022/08/09 12:11:30;;;;;;;1.35;0.50;;;28.20;99.90;;;;;;5036311;28;20499;-69
2022/08/09 12:14:05;;;;;;;0.40;0.30;;;28.30;99.90;;;;;;5033642;28;20033;-67
2022/08/09 12:16:38;;;;;;;0.68;0.30;;;28.10;99.90;;;;;;5036101;28;20489;-67
2022/08/09 12:19:07;;;;;;;0.70;0.43;;;27.90;99.90;;;;;;5035040;28;20034;-67
2022/08/09 12:21:35;;;;;;;1.67;0.70;;;27.60;99.90;;;;;;5035950;28;20064;-67
2022/08/09 12:24:05;;;;;;;1.20;0.60;;;27.10;99.90;;;;;;5035634;28;20067;-67
2022/08/09 12:26:50;;;;;;;0.98;0.40;;;26.50;99.90;;;;;;5036065;28;20026;-67
2022/08/09 12:29:23;;;;;;;1.23;0.75;;;27.00;99.90;;;;;;5035772;28;20029;-67
2022/08/09 12:31:59;;;;;;;0.30;0.30;;;27.70;99.90;;;;;;5035632;28;20033;-67
2022/08/09 12:34:39;;;;;;;1.95;0.40;;;28.30;99.90;;;;;;5033796;28;20478;-67
2022/08/09 12:37:06;;;;;;;3.22;0.30;;;28.50;99.90;;;;;;5035857;28;20025;-67
2022/08/09 12:39:32;;;;;;;0.50;0.40;;;28.70;99.90;;;;;;5035393;28;20045;-67
2022/08/09 12:42:11;;;;;;;0.63;0.52;;;28.30;99.90;;;;;;5035612;28;20036;-67
2022/08/09 12:44:38;;;;;;;2.47;0.43;;;27.60;99.90;;;;;;5035727;28;20018;-67
2022/08/09 12:47:05;;;;;;;0.95;0.30;;;27.30;99.90;;;;;;5035306;28;20087;-67
2022/08/09 12:49:32;;;;;;;0.35;0.32;;;26.90;99.90;;;;;;5034330;28;20470;-68
2022/08/09 12:51:58;;;;;;;0.50;0.50;;;26.30;99.90;;;;;;5035528;28;20026;-67
2022/08/09 12:54:24;;;;;;;0.30;0.30;;;25.90;99.90;;;;;;5035336;28;20386;-67
2022/08/09 12:56:51;;;;;;;2.00;0.30;;;26.00;99.90;;;;;;5035229;28;20363;-67